sensor_id;sensor_type;location;lat;lon;timestamp;temperature;humidity
24164;DHT22;12319;49.204;8.116;2023-04-02T00:01:36;11.10;94.00
24164;DHT22;12319;49.204;8.116;2023-04-02T00:04:04;11.10;94.10
24164;DHT22;12319;49.204;8.116;2023-04-02T00:06:35;11.00;94.10
24164;DHT22;12319;49.204;8.116;2023-04-02T00:11:41;11.00;94.20
24164;DHT22;12319;49.204;8.116;2023-04-02T00:14:31;11.00;94.40
24164;DHT22;12319;49.204;8.116;2023-04-02T00:17:00;10.90;94.30
24164;DHT22;12319;49.204;8.116;2023-04-02T00:19:35;10.90;94.40
24164;DHT22;12319;49.204;8.116;2023-04-02T00:22:05;10.90;94.60
24164;DHT22;12319;49.204;8.116;2023-04-02T00:24:31;10.90;94.70
24164;DHT22;12319;49.204;8.116;2023-04-02T00:26:57;10.90;94.70
24164;DHT22;12319;49.204;8.116;2023-04-02T00:29:23;10.80;94.90
24164;DHT22;12319;49.204;8.116;2023-04-02T00:31:50;10.90;95.10
24164;DHT22;12319;49.204;8.116;2023-04-02T00:34:23;10.80;95.20
24164;DHT22;12319;49.204;8.116;2023-04-02T00:36:51;10.80;95.20
24164;DHT22;12319;49.204;8.116;2023-04-02T00:39:28;10.80;95.50
24164;DHT22;12319;49.204;8.116;2023-04-02T00:41:56;10.80;95.40
24164;DHT22;12319;49.204;8.116;2023-04-02T00:44:35;10.80;95.40
24164;DHT22;12319;49.204;8.116;2023-04-02T00:47:08;10.90;95.70
24164;DHT22;12319;49.204;8.116;2023-04-02T00:49:38;10.80;95.70
24164;DHT22;12319;49.204;8.116;2023-04-02T00:52:11;10.80;95.80
24164;DHT22;12319;49.204;8.116;2023-04-02T00:54:49;10.80;95.90
24164;DHT22;12319;49.204;8.116;2023-04-02T00:57:20;10.80;95.80
24164;DHT22;12319;49.204;8.116;2023-04-02T01:00:17;10.70;95.80
24164;DHT22;12319;49.204;8.116;2023-04-02T01:06:05;10.70;96.30
24164;DHT22;12319;49.204;8.116;2023-04-02T01:11:32;10.70;96.40
24164;DHT22;12319;49.204;8.116;2023-04-02T01:17:07;10.70;96.60
24164;DHT22;12319;49.204;8.116;2023-04-02T01:19:44;10.70;96.60
24164;DHT22;12319;49.204;8.116;2023-04-02T01:24:43;10.70;96.70
24164;DHT22;12319;49.204;8.116;2023-04-02T01:27:20;10.70;96.60
24164;DHT22;12319;49.204;8.116;2023-04-02T01:29:53;10.70;96.90
24164;DHT22;12319;49.204;8.116;2023-04-02T01:32:24;10.70;97.00
24164;DHT22;12319;49.204;8.116;2023-04-02T01:34:51;10.70;97.00
24164;DHT22;12319;49.204;8.116;2023-04-02T01:40:38;10.60;97.10
24164;DHT22;12319;49.204;8.116;2023-04-02T01:43:15;10.60;97.20
24164;DHT22;12319;49.204;8.116;2023-04-02T01:45:45;10.60;97.30
24164;DHT22;12319;49.204;8.116;2023-04-02T01:48:16;10.60;97.40
24164;DHT22;12319;49.204;8.116;2023-04-02T01:50:45;10.60;97.50
24164;DHT22;12319;49.204;8.116;2023-04-02T01:53:14;10.60;97.40
24164;DHT22;12319;49.204;8.116;2023-04-02T01:55:54;10.60;97.50
24164;DHT22;12319;49.204;8.116;2023-04-02T01:58:28;10.60;97.50
24164;DHT22;12319;49.204;8.116;2023-04-02T02:01:04;10.50;97.50
24164;DHT22;12319;49.204;8.116;2023-04-02T02:03:31;10.60;97.50
24164;DHT22;12319;49.204;8.116;2023-04-02T02:05:58;10.50;97.50
24164;DHT22;12319;49.204;8.116;2023-04-02T02:08:45;10.50;97.60
24164;DHT22;12319;49.204;8.116;2023-04-02T02:11:15;10.50;97.50
24164;DHT22;12319;49.204;8.116;2023-04-02T02:14:28;10.60;97.50
24164;DHT22;12319;49.204;8.116;2023-04-02T02:16:57;10.50;97.50
24164;DHT22;12319;49.204;8.116;2023-04-02T02:19:32;10.50;97.60
24164;DHT22;12319;49.204;8.116;2023-04-02T02:22:25;10.50;97.60
24164;DHT22;12319;49.204;8.116;2023-04-02T02:24:54;10.50;97.60
24164;DHT22;12319;49.204;8.116;2023-04-02T02:32:22;10.40;97.70
24164;DHT22;12319;49.204;8.116;2023-04-02T02:35:00;10.40;98.00
24164;DHT22;12319;49.204;8.116;2023-04-02T02:37:30;10.40;97.90
24164;DHT22;12319;49.204;8.116;2023-04-02T02:40:00;10.40;98.00
24164;DHT22;12319;49.204;8.116;2023-04-02T02:42:33;10.40;98.00
24164;DHT22;12319;49.204;8.116;2023-04-02T02:45:04;10.50;98.00
24164;DHT22;12319;49.204;8.116;2023-04-02T02:47:33;10.40;98.00
24164;DHT22;12319;49.204;8.116;2023-04-02T02:50:03;10.40;97.90
24164;DHT22;12319;49.204;8.116;2023-04-02T02:52:34;10.40;97.90
24164;DHT22;12319;49.204;8.116;2023-04-02T02:55:03;10.40;97.90
24164;DHT22;12319;49.204;8.116;2023-04-02T02:57:34;10.40;98.00
24164;DHT22;12319;49.204;8.116;2023-04-02T03:00:01;10.40;97.90
24164;DHT22;12319;49.204;8.116;2023-04-02T03:02:30;10.40;98.00
24164;DHT22;12319;49.204;8.116;2023-04-02T03:04:59;10.40;98.00
24164;DHT22;12319;49.204;8.116;2023-04-02T03:07:27;10.40;98.00
24164;DHT22;12319;49.204;8.116;2023-04-02T03:10:17;10.40;98.00
24164;DHT22;12319;49.204;8.116;2023-04-02T03:12:58;10.40;98.00
24164;DHT22;12319;49.204;8.116;2023-04-02T03:18:51;10.30;98.20
24164;DHT22;12319;49.204;8.116;2023-04-02T03:21:30;10.30;98.30
24164;DHT22;12319;49.204;8.116;2023-04-02T03:24:02;10.30;98.20
24164;DHT22;12319;49.204;8.116;2023-04-02T03:26:40;10.30;98.40
24164;DHT22;12319;49.204;8.116;2023-04-02T03:29:24;10.20;98.40
24164;DHT22;12319;49.204;8.116;2023-04-02T03:31:58;10.30;98.40
24164;DHT22;12319;49.204;8.116;2023-04-02T03:34:32;10.30;98.50
24164;DHT22;12319;49.204;8.116;2023-04-02T03:39:43;10.30;98.50
24164;DHT22;12319;49.204;8.116;2023-04-02T03:44:50;10.30;98.60
24164;DHT22;12319;49.204;8.116;2023-04-02T03:47:37;10.30;98.70
24164;DHT22;12319;49.204;8.116;2023-04-02T03:52:52;10.20;98.70
24164;DHT22;12319;49.204;8.116;2023-04-02T03:55:21;10.30;98.90
24164;DHT22;12319;49.204;8.116;2023-04-02T03:57:57;10.20;98.90
24164;DHT22;12319;49.204;8.116;2023-04-02T04:03:15;10.20;98.90
24164;DHT22;12319;49.204;8.116;2023-04-02T04:06:04;10.30;99.10
24164;DHT22;12319;49.204;8.116;2023-04-02T04:08:34;10.30;98.90
24164;DHT22;12319;49.204;8.116;2023-04-02T04:11:11;10.20;99.30
24164;DHT22;12319;49.204;8.116;2023-04-02T04:13:49;10.30;99.10
24164;DHT22;12319;49.204;8.116;2023-04-02T04:16:27;10.30;99.50
24164;DHT22;12319;49.204;8.116;2023-04-02T04:19:04;10.30;99.10
24164;DHT22;12319;49.204;8.116;2023-04-02T04:21:33;10.30;99.40
24164;DHT22;12319;49.204;8.116;2023-04-02T04:24:21;10.30;99.40
24164;DHT22;12319;49.204;8.116;2023-04-02T04:26:59;10.20;99.60
24164;DHT22;12319;49.204;8.116;2023-04-02T04:32:44;10.20;99.50
24164;DHT22;12319;49.204;8.116;2023-04-02T04:35:22;10.20;99.60
24164;DHT22;12319;49.204;8.116;2023-04-02T04:38:00;10.20;99.50
24164;DHT22;12319;49.204;8.116;2023-04-02T04:40:30;10.20;99.70
24164;DHT22;12319;49.204;8.116;2023-04-02T04:43:02;10.30;99.60
24164;DHT22;12319;49.204;8.116;2023-04-02T04:45:40;10.20;99.90
24164;DHT22;12319;49.204;8.116;2023-04-02T04:48:19;10.20;99.80
24164;DHT22;12319;49.204;8.116;2023-04-02T04:50:49;10.20;99.90
24164;DHT22;12319;49.204;8.116;2023-04-02T04:53:21;10.20;99.90
24164;DHT22;12319;49.204;8.116;2023-04-02T04:55:51;10.20;99.90
24164;DHT22;12319;49.204;8.116;2023-04-02T05:01:11;10.20;99.90
24164;DHT22;12319;49.204;8.116;2023-04-02T05:03:47;10.20;99.90
24164;DHT22;12319;49.204;8.116;2023-04-02T05:06:35;10.10;99.80
24164;DHT22;12319;49.204;8.116;2023-04-02T05:11:49;10.20;99.90
24164;DHT22;12319;49.204;8.116;2023-04-02T05:14:41;10.20;99.90
24164;DHT22;12319;49.204;8.116;2023-04-02T05:17:16;10.20;99.90
24164;DHT22;12319;49.204;8.116;2023-04-02T05:19:59;10.20;99.90
24164;DHT22;12319;49.204;8.116;2023-04-02T05:25:21;10.20;99.90
24164;DHT22;12319;49.204;8.116;2023-04-02T05:28:16;10.30;99.90
24164;DHT22;12319;49.204;8.116;2023-04-02T05:30:58;10.20;99.90
24164;DHT22;12319;49.204;8.116;2023-04-02T05:33:29;10.30;99.90
24164;DHT22;12319;49.204;8.116;2023-04-02T05:36:08;10.30;99.90
24164;DHT22;12319;49.204;8.116;2023-04-02T05:38:37;10.30;99.90
24164;DHT22;12319;49.204;8.116;2023-04-02T05:44:06;10.40;99.90
24164;DHT22;12319;49.204;8.116;2023-04-02T05:47:05;10.40;99.90
24164;DHT22;12319;49.204;8.116;2023-04-02T05:52:07;10.40;99.90
24164;DHT22;12319;49.204;8.116;2023-04-02T05:54:42;10.50;99.90
24164;DHT22;12319;49.204;8.116;2023-04-02T05:57:14;10.50;99.90
24164;DHT22;12319;49.204;8.116;2023-04-02T05:59:45;10.50;99.90
24164;DHT22;12319;49.204;8.116;2023-04-02T06:02:24;10.60;99.90
24164;DHT22;12319;49.204;8.116;2023-04-02T06:05:20;10.60;99.90
24164;DHT22;12319;49.204;8.116;2023-04-02T06:08:00;10.60;99.90
24164;DHT22;12319;49.204;8.116;2023-04-02T06:10:30;10.60;99.90
24164;DHT22;12319;49.204;8.116;2023-04-02T06:13:05;10.70;99.90
24164;DHT22;12319;49.204;8.116;2023-04-02T06:15:32;10.70;99.90
24164;DHT22;12319;49.204;8.116;2023-04-02T06:18:07;10.70;99.90
24164;DHT22;12319;49.204;8.116;2023-04-02T06:20:33;10.70;99.90
24164;DHT22;12319;49.204;8.116;2023-04-02T06:23:12;10.70;99.90
24164;DHT22;12319;49.204;8.116;2023-04-02T06:25:50;10.70;99.90
24164;DHT22;12319;49.204;8.116;2023-04-02T06:28:23;10.70;99.90
24164;DHT22;12319;49.204;8.116;2023-04-02T06:30:53;10.70;99.90
24164;DHT22;12319;49.204;8.116;2023-04-02T06:33:20;10.80;99.90
24164;DHT22;12319;49.204;8.116;2023-04-02T06:35:46;10.80;99.90
24164;DHT22;12319;49.204;8.116;2023-04-02T06:38:19;10.80;99.90
24164;DHT22;12319;49.204;8.116;2023-04-02T06:40:52;10.80;99.90
24164;DHT22;12319;49.204;8.116;2023-04-02T06:43:30;10.80;99.90
24164;DHT22;12319;49.204;8.116;2023-04-02T06:46:03;10.90;99.90
24164;DHT22;12319;49.204;8.116;2023-04-02T06:48:31;10.90;99.90
24164;DHT22;12319;49.204;8.116;2023-04-02T06:51:06;10.90;99.90
24164;DHT22;12319;49.204;8.116;2023-04-02T06:53:56;11.00;99.90
24164;DHT22;12319;49.204;8.116;2023-04-02T06:58:57;11.10;99.90
24164;DHT22;12319;49.204;8.116;2023-04-02T07:01:30;11.10;99.90
24164;DHT22;12319;49.204;8.116;2023-04-02T07:03:58;11.10;99.90
24164;DHT22;12319;49.204;8.116;2023-04-02T07:06:24;11.20;99.90
24164;DHT22;12319;49.204;8.116;2023-04-02T07:08:49;11.30;99.90
24164;DHT22;12319;49.204;8.116;2023-04-02T07:11:17;11.40;99.90
24164;DHT22;12319;49.204;8.116;2023-04-02T07:13:43;11.40;99.90
24164;DHT22;12319;49.204;8.116;2023-04-02T07:16:20;11.50;99.90
24164;DHT22;12319;49.204;8.116;2023-04-02T07:18:47;11.50;99.90
24164;DHT22;12319;49.204;8.116;2023-04-02T07:21:13;11.60;99.90
24164;DHT22;12319;49.204;8.116;2023-04-02T07:23:38;11.70;99.80
24164;DHT22;12319;49.204;8.116;2023-04-02T07:26:05;11.70;99.70
24164;DHT22;12319;49.204;8.116;2023-04-02T07:28:32;11.80;99.70
24164;DHT22;12319;49.204;8.116;2023-04-02T07:30:57;11.90;99.60
24164;DHT22;12319;49.204;8.116;2023-04-02T07:33:25;12.00;99.40
24164;DHT22;12319;49.204;8.116;2023-04-02T07:35:53;12.00;99.30
24164;DHT22;12319;49.204;8.116;2023-04-02T07:38:19;12.00;99.30
24164;DHT22;12319;49.204;8.116;2023-04-02T07:40:45;12.10;99.30
24164;DHT22;12319;49.204;8.116;2023-04-02T07:43:11;12.20;99.00
24164;DHT22;12319;49.204;8.116;2023-04-02T07:45:36;12.30;99.10
24164;DHT22;12319;49.204;8.116;2023-04-02T07:48:05;12.30;98.90
24164;DHT22;12319;49.204;8.116;2023-04-02T07:50:31;12.40;98.80
24164;DHT22;12319;49.204;8.116;2023-04-02T07:52:57;12.40;98.60
24164;DHT22;12319;49.204;8.116;2023-04-02T07:55:22;12.50;98.30
24164;DHT22;12319;49.204;8.116;2023-04-02T07:57:50;12.40;98.20
24164;DHT22;12319;49.204;8.116;2023-04-02T08:00:17;12.50;98.20
24164;DHT22;12319;49.204;8.116;2023-04-02T08:02:43;12.60;98.10
24164;DHT22;12319;49.204;8.116;2023-04-02T08:05:08;12.50;98.10
24164;DHT22;12319;49.204;8.116;2023-04-02T08:07:35;12.60;98.10
24164;DHT22;12319;49.204;8.116;2023-04-02T08:10:01;12.70;98.00
24164;DHT22;12319;49.204;8.116;2023-04-02T08:12:27;12.70;97.90
24164;DHT22;12319;49.204;8.116;2023-04-02T08:14:52;12.80;97.60
24164;DHT22;12319;49.204;8.116;2023-04-02T08:17:18;12.90;97.50
24164;DHT22;12319;49.204;8.116;2023-04-02T08:19:43;12.90;97.40
24164;DHT22;12319;49.204;8.116;2023-04-02T08:22:09;13.00;97.20
24164;DHT22;12319;49.204;8.116;2023-04-02T08:24:36;13.00;97.00
24164;DHT22;12319;49.204;8.116;2023-04-02T08:27:01;13.10;96.80
24164;DHT22;12319;49.204;8.116;2023-04-02T08:29:27;13.10;96.70
24164;DHT22;12319;49.204;8.116;2023-04-02T08:31:57;13.20;96.60
24164;DHT22;12319;49.204;8.116;2023-04-02T08:34:23;13.30;96.60
24164;DHT22;12319;49.204;8.116;2023-04-02T08:36:48;13.30;96.30
24164;DHT22;12319;49.204;8.116;2023-04-02T08:39:14;13.30;96.10
24164;DHT22;12319;49.204;8.116;2023-04-02T08:41:47;13.40;96.10
24164;DHT22;12319;49.204;8.116;2023-04-02T08:44:44;13.40;96.30
24164;DHT22;12319;49.204;8.116;2023-04-02T08:47:14;13.60;96.30
24164;DHT22;12319;49.204;8.116;2023-04-02T08:49:48;13.70;95.80
24164;DHT22;12319;49.204;8.116;2023-04-02T08:52:26;13.90;95.80
24164;DHT22;12319;49.204;8.116;2023-04-02T08:54:53;14.00;95.70
24164;DHT22;12319;49.204;8.116;2023-04-02T09:00:54;14.40;95.40
24164;DHT22;12319;49.204;8.116;2023-04-02T09:05:48;14.90;94.70
24164;DHT22;12319;49.204;8.116;2023-04-02T09:08:23;15.20;94.30
24164;DHT22;12319;49.204;8.116;2023-04-02T09:13:23;15.80;93.30
24164;DHT22;12319;49.204;8.116;2023-04-02T09:15:54;16.10;93.40
24164;DHT22;12319;49.204;8.116;2023-04-02T09:18:20;16.40;93.10
24164;DHT22;12319;49.204;8.116;2023-04-02T09:20:46;16.60;93.10
24164;DHT22;12319;49.204;8.116;2023-04-02T09:23:17;16.80;92.50
24164;DHT22;12319;49.204;8.116;2023-04-02T09:25:47;16.90;91.90
24164;DHT22;12319;49.204;8.116;2023-04-02T09:28:13;17.00;91.90
24164;DHT22;12319;49.204;8.116;2023-04-02T09:30:42;17.00;91.50
24164;DHT22;12319;49.204;8.116;2023-04-02T09:33:13;17.00;91.10
24164;DHT22;12319;49.204;8.116;2023-04-02T09:38:22;17.10;90.30
24164;DHT22;12319;49.204;8.116;2023-04-02T09:43:27;17.20;90.00
24164;DHT22;12319;49.204;8.116;2023-04-02T09:48:36;17.00;89.40
24164;DHT22;12319;49.204;8.116;2023-04-02T09:51:09;16.80;89.00
24164;DHT22;12319;49.204;8.116;2023-04-02T09:53:39;16.60;89.80
24164;DHT22;12319;49.204;8.116;2023-04-02T09:56:19;16.40;89.40
24164;DHT22;12319;49.204;8.116;2023-04-02T09:59:13;16.10;89.00
24164;DHT22;12319;49.204;8.116;2023-04-02T10:02:00;15.90;88.90
24164;DHT22;12319;49.204;8.116;2023-04-02T10:04:47;15.60;89.00
24164;DHT22;12319;49.204;8.116;2023-04-02T10:07:39;15.50;89.40
24164;DHT22;12319;49.204;8.116;2023-04-02T10:10:28;15.40;89.10
24164;DHT22;12319;49.204;8.116;2023-04-02T10:13:07;15.30;89.20
24164;DHT22;12319;49.204;8.116;2023-04-02T10:15:41;15.10;89.70
24164;DHT22;12319;49.204;8.116;2023-04-02T10:18:44;15.10;89.60
24164;DHT22;12319;49.204;8.116;2023-04-02T10:21:14;14.90;89.10
24164;DHT22;12319;49.204;8.116;2023-04-02T10:23:41;14.90;90.00
24164;DHT22;12319;49.204;8.116;2023-04-02T10:26:47;14.80;90.00
24164;DHT22;12319;49.204;8.116;2023-04-02T10:32:02;14.80;90.00
24164;DHT22;12319;49.204;8.116;2023-04-02T10:34:36;14.80;90.00
24164;DHT22;12319;49.204;8.116;2023-04-02T10:43:19;14.80;90.00
24164;DHT22;12319;49.204;8.116;2023-04-02T10:54:36;15.00;89.70
24164;DHT22;12319;49.204;8.116;2023-04-02T10:57:37;14.90;89.40
24164;DHT22;12319;49.204;8.116;2023-04-02T11:00:12;14.90;89.60
24164;DHT22;12319;49.204;8.116;2023-04-02T11:02:51;14.80;89.60
24164;DHT22;12319;49.204;8.116;2023-04-02T11:05:30;14.80;89.70
24164;DHT22;12319;49.204;8.116;2023-04-02T11:10:48;14.80;90.00
24164;DHT22;12319;49.204;8.116;2023-04-02T11:13:25;14.70;89.90
24164;DHT22;12319;49.204;8.116;2023-04-02T11:15:53;14.60;90.10
24164;DHT22;12319;49.204;8.116;2023-04-02T11:18:27;14.60;90.80
24164;DHT22;12319;49.204;8.116;2023-04-02T11:20:57;14.30;90.80
24164;DHT22;12319;49.204;8.116;2023-04-02T11:23:27;14.00;91.10
24164;DHT22;12319;49.204;8.116;2023-04-02T11:37:43;12.70;92.30
24164;DHT22;12319;49.204;8.116;2023-04-02T11:42:36;12.40;92.70
24164;DHT22;12319;49.204;8.116;2023-04-02T11:50:35;12.20;93.60
24164;DHT22;12319;49.204;8.116;2023-04-02T11:53:20;12.10;93.80
24164;DHT22;12319;49.204;8.116;2023-04-02T11:56:27;12.10;93.90
24164;DHT22;12319;49.204;8.116;2023-04-02T12:05:17;12.30;94.60
24164;DHT22;12319;49.204;8.116;2023-04-02T12:10:30;12.40;94.20
24164;DHT22;12319;49.204;8.116;2023-04-02T12:12:56;12.50;94.30
24164;DHT22;12319;49.204;8.116;2023-04-02T12:15:43;12.50;94.10
24164;DHT22;12319;49.204;8.116;2023-04-02T12:18:16;12.50;94.20
24164;DHT22;12319;49.204;8.116;2023-04-02T12:20:52;12.60;94.40
24164;DHT22;12319;49.204;8.116;2023-04-02T12:23:22;12.70;94.20
24164;DHT22;12319;49.204;8.116;2023-04-02T12:28:28;12.90;94.20
24164;DHT22;12319;49.204;8.116;2023-04-02T12:31:03;12.90;94.10
24164;DHT22;12319;49.204;8.116;2023-04-02T12:33:31;12.90;94.10
24164;DHT22;12319;49.204;8.116;2023-04-02T12:36:05;12.90;94.00
24164;DHT22;12319;49.204;8.116;2023-04-02T12:38:42;12.90;93.70
24164;DHT22;12319;49.204;8.116;2023-04-02T12:44:04;12.90;93.70
24164;DHT22;12319;49.204;8.116;2023-04-02T12:46:34;13.00;93.70
24164;DHT22;12319;49.204;8.116;2023-04-02T12:49:24;13.10;93.50
24164;DHT22;12319;49.204;8.116;2023-04-02T12:51:53;13.20;93.50
24164;DHT22;12319;49.204;8.116;2023-04-02T12:54:19;13.20;93.20
24164;DHT22;12319;49.204;8.116;2023-04-02T12:56:46;13.30;93.20
24164;DHT22;12319;49.204;8.116;2023-04-02T12:59:35;13.30;93.10
24164;DHT22;12319;49.204;8.116;2023-04-02T13:02:14;13.50;93.20
24164;DHT22;12319;49.204;8.116;2023-04-02T13:04:57;13.50;93.20
24164;DHT22;12319;49.204;8.116;2023-04-02T13:07:27;13.50;93.20
24164;DHT22;12319;49.204;8.116;2023-04-02T13:10:05;13.30;92.70
24164;DHT22;12319;49.204;8.116;2023-04-02T13:12:39;13.30;92.60
24164;DHT22;12319;49.204;8.116;2023-04-02T13:15:21;13.20;92.60
24164;DHT22;12319;49.204;8.116;2023-04-02T13:18:20;13.00;92.50
24164;DHT22;12319;49.204;8.116;2023-04-02T13:21:00;12.90;92.40
24164;DHT22;12319;49.204;8.116;2023-04-02T13:23:31;12.60;92.20
24164;DHT22;12319;49.204;8.116;2023-04-02T13:26:20;12.60;92.40
24164;DHT22;12319;49.204;8.116;2023-04-02T13:31:33;12.00;92.60
24164;DHT22;12319;49.204;8.116;2023-04-02T13:33:59;11.80;92.60
24164;DHT22;12319;49.204;8.116;2023-04-02T13:36:26;11.70;92.80
24164;DHT22;12319;49.204;8.116;2023-04-02T13:38:54;11.50;92.80
24164;DHT22;12319;49.204;8.116;2023-04-02T13:41:22;11.30;93.00
24164;DHT22;12319;49.204;8.116;2023-04-02T13:43:49;11.20;93.20
24164;DHT22;12319;49.204;8.116;2023-04-02T13:46:19;11.20;93.20
24164;DHT22;12319;49.204;8.116;2023-04-02T13:48:47;11.10;93.20
24164;DHT22;12319;49.204;8.116;2023-04-02T13:51:18;11.10;93.40
24164;DHT22;12319;49.204;8.116;2023-04-02T13:53:49;11.10;93.40
24164;DHT22;12319;49.204;8.116;2023-04-02T13:56:16;11.00;93.40
24164;DHT22;12319;49.204;8.116;2023-04-02T13:58:41;10.90;93.50
24164;DHT22;12319;49.204;8.116;2023-04-02T14:01:07;10.80;93.60
24164;DHT22;12319;49.204;8.116;2023-04-02T14:03:33;10.80;93.50
24164;DHT22;12319;49.204;8.116;2023-04-02T14:06:07;10.70;93.50
24164;DHT22;12319;49.204;8.116;2023-04-02T14:08:40;10.60;93.60
24164;DHT22;12319;49.204;8.116;2023-04-02T14:11:33;10.50;93.70
24164;DHT22;12319;49.204;8.116;2023-04-02T14:16:58;10.40;93.90
24164;DHT22;12319;49.204;8.116;2023-04-02T14:19:53;10.40;94.00
24164;DHT22;12319;49.204;8.116;2023-04-02T14:24:59;10.20;94.30
24164;DHT22;12319;49.204;8.116;2023-04-02T14:27:34;10.10;94.30
24164;DHT22;12319;49.204;8.116;2023-04-02T14:32:58;10.10;94.40
24164;DHT22;12319;49.204;8.116;2023-04-02T14:35:37;10.10;94.60
24164;DHT22;12319;49.204;8.116;2023-04-02T14:41:50;9.80;95.10
24164;DHT22;12319;49.204;8.116;2023-04-02T14:44:22;9.90;95.60
24164;DHT22;12319;49.204;8.116;2023-04-02T14:46:49;9.90;95.80
24164;DHT22;12319;49.204;8.116;2023-04-02T14:49:36;9.80;95.40
24164;DHT22;12319;49.204;8.116;2023-04-02T14:52:09;9.80;95.70
24164;DHT22;12319;49.204;8.116;2023-04-02T14:57:36;9.60;95.70
24164;DHT22;12319;49.204;8.116;2023-04-02T15:00:09;9.60;95.60
24164;DHT22;12319;49.204;8.116;2023-04-02T15:05:45;9.50;95.90
24164;DHT22;12319;49.204;8.116;2023-04-02T15:08:17;9.30;96.00
24164;DHT22;12319;49.204;8.116;2023-04-02T15:11:22;9.50;95.90
24164;DHT22;12319;49.204;8.116;2023-04-02T15:14:04;9.50;96.00
24164;DHT22;12319;49.204;8.116;2023-04-02T15:16:31;9.50;96.10
24164;DHT22;12319;49.204;8.116;2023-04-02T15:19:03;9.50;96.30
24164;DHT22;12319;49.204;8.116;2023-04-02T15:21:40;9.60;96.20
24164;DHT22;12319;49.204;8.116;2023-04-02T15:24:25;9.60;96.30
24164;DHT22;12319;49.204;8.116;2023-04-02T15:27:01;9.60;96.30
24164;DHT22;12319;49.204;8.116;2023-04-02T15:29:52;9.60;96.10
24164;DHT22;12319;49.204;8.116;2023-04-02T15:40:39;9.60;95.70
24164;DHT22;12319;49.204;8.116;2023-04-02T15:44:15;9.50;95.70
24164;DHT22;12319;49.204;8.116;2023-04-02T15:55:09;9.20;95.60
24164;DHT22;12319;49.204;8.116;2023-04-02T16:00:25;9.20;95.70
24164;DHT22;12319;49.204;8.116;2023-04-02T16:11:12;9.00;95.50
24164;DHT22;12319;49.204;8.116;2023-04-02T16:13:39;9.00;95.40
24164;DHT22;12319;49.204;8.116;2023-04-02T16:16:10;9.00;95.50
24164;DHT22;12319;49.204;8.116;2023-04-02T16:21:20;8.90;95.20
24164;DHT22;12319;49.204;8.116;2023-04-02T16:23:46;8.80;95.30
24164;DHT22;12319;49.204;8.116;2023-04-02T16:26:32;8.80;95.30
24164;DHT22;12319;49.204;8.116;2023-04-02T16:31:48;8.70;95.20
24164;DHT22;12319;49.204;8.116;2023-04-02T16:34:36;8.60;95.30
24164;DHT22;12319;49.204;8.116;2023-04-02T16:37:39;8.50;95.10
24164;DHT22;12319;49.204;8.116;2023-04-02T16:43:23;8.50;95.10
24164;DHT22;12319;49.204;8.116;2023-04-02T16:48:55;8.40;95.20
24164;DHT22;12319;49.204;8.116;2023-04-02T16:54:18;8.30;95.10
24164;DHT22;12319;49.204;8.116;2023-04-02T17:02:03;8.20;95.00
24164;DHT22;12319;49.204;8.116;2023-04-02T17:12:45;8.30;95.20
24164;DHT22;12319;49.204;8.116;2023-04-02T17:17:42;8.20;94.90
24164;DHT22;12319;49.204;8.116;2023-04-02T17:20:17;8.20;94.80
24164;DHT22;12319;49.204;8.116;2023-04-02T17:22:45;8.10;94.50
24164;DHT22;12319;49.204;8.116;2023-04-02T17:25:22;8.10;94.50
24164;DHT22;12319;49.204;8.116;2023-04-02T17:27:54;8.00;94.40
24164;DHT22;12319;49.204;8.116;2023-04-02T17:30:43;7.90;94.50
24164;DHT22;12319;49.204;8.116;2023-04-02T17:33:13;7.90;94.50
24164;DHT22;12319;49.204;8.116;2023-04-02T17:36:03;7.80;94.30
24164;DHT22;12319;49.204;8.116;2023-04-02T17:52:41;7.60;94.20
24164;DHT22;12319;49.204;8.116;2023-04-02T17:55:26;7.60;94.00
24164;DHT22;12319;49.204;8.116;2023-04-02T18:03:42;7.50;94.00
24164;DHT22;12319;49.204;8.116;2023-04-02T18:41:54;7.20;93.10
24164;DHT22;12319;49.204;8.116;2023-04-02T18:49:38;7.10;93.00
24164;DHT22;12319;49.204;8.116;2023-04-02T18:52:12;7.10;92.90
24164;DHT22;12319;49.204;8.116;2023-04-02T18:54:48;7.10;93.00
24164;DHT22;12319;49.204;8.116;2023-04-02T18:57:24;7.20;92.90
24164;DHT22;12319;49.204;8.116;2023-04-02T19:08:09;7.20;92.80
24164;DHT22;12319;49.204;8.116;2023-04-02T19:10:37;7.10;92.70
24164;DHT22;12319;49.204;8.116;2023-04-02T19:13:14;7.10;92.80
24164;DHT22;12319;49.204;8.116;2023-04-02T19:21:12;7.10;92.90
24164;DHT22;12319;49.204;8.116;2023-04-02T19:24:05;7.10;93.00
24164;DHT22;12319;49.204;8.116;2023-04-02T19:26:47;7.00;92.90
24164;DHT22;12319;49.204;8.116;2023-04-02T19:32:31;7.00;92.80
24164;DHT22;12319;49.204;8.116;2023-04-02T19:35:18;6.90;92.60
24164;DHT22;12319;49.204;8.116;2023-04-02T19:38:12;6.90;92.70
24164;DHT22;12319;49.204;8.116;2023-04-02T19:41:01;6.90;92.50
24164;DHT22;12319;49.204;8.116;2023-04-02T19:43:28;6.90;92.50
24164;DHT22;12319;49.204;8.116;2023-04-02T19:45:54;6.90;92.40
24164;DHT22;12319;49.204;8.116;2023-04-02T19:48:23;6.90;92.40
24164;DHT22;12319;49.204;8.116;2023-04-02T19:50:49;6.90;92.50
24164;DHT22;12319;49.204;8.116;2023-04-02T19:53:15;6.90;92.40
24164;DHT22;12319;49.204;8.116;2023-04-02T19:55:42;6.90;92.30
24164;DHT22;12319;49.204;8.116;2023-04-02T19:58:30;6.90;92.40
24164;DHT22;12319;49.204;8.116;2023-04-02T20:00:57;6.90;92.50
24164;DHT22;12319;49.204;8.116;2023-04-02T20:03:23;6.90;92.60
24164;DHT22;12319;49.204;8.116;2023-04-02T20:05:49;6.90;92.60
24164;DHT22;12319;49.204;8.116;2023-04-02T20:08:15;6.90;92.60
24164;DHT22;12319;49.204;8.116;2023-04-02T20:10:41;6.90;92.70
24164;DHT22;12319;49.204;8.116;2023-04-02T20:13:07;6.90;92.70
24164;DHT22;12319;49.204;8.116;2023-04-02T20:15:33;6.90;92.60
24164;DHT22;12319;49.204;8.116;2023-04-02T20:17:59;6.90;92.50
24164;DHT22;12319;49.204;8.116;2023-04-02T20:20:25;6.90;92.50
24164;DHT22;12319;49.204;8.116;2023-04-02T20:22:51;7.00;92.50
24164;DHT22;12319;49.204;8.116;2023-04-02T20:25:17;7.00;92.40
24164;DHT22;12319;49.204;8.116;2023-04-02T20:27:42;6.90;92.30
24164;DHT22;12319;49.204;8.116;2023-04-02T20:30:08;6.90;92.20
24164;DHT22;12319;49.204;8.116;2023-04-02T20:32:34;6.90;92.30
24164;DHT22;12319;49.204;8.116;2023-04-02T20:35:00;6.90;92.30
24164;DHT22;12319;49.204;8.116;2023-04-02T20:37:26;6.90;92.30
24164;DHT22;12319;49.204;8.116;2023-04-02T20:39:51;6.90;92.20
24164;DHT22;12319;49.204;8.116;2023-04-02T20:42:17;6.90;92.10
24164;DHT22;12319;49.204;8.116;2023-04-02T20:44:43;6.90;92.10
24164;DHT22;12319;49.204;8.116;2023-04-02T20:47:08;7.00;92.00
24164;DHT22;12319;49.204;8.116;2023-04-02T20:49:35;7.00;92.10
24164;DHT22;12319;49.204;8.116;2023-04-02T20:52:00;7.00;92.10
24164;DHT22;12319;49.204;8.116;2023-04-02T20:54:26;7.00;92.10
24164;DHT22;12319;49.204;8.116;2023-04-02T20:56:52;7.00;92.10
24164;DHT22;12319;49.204;8.116;2023-04-02T20:59:17;7.00;92.10